sensor_id;sensor_type;location;lat;lon;timestamp;temperature;humidity
34989;DHT22;21192;40.182;44.516;2023-08-06T00:00:00;26.60;58.50
34989;DHT22;21192;40.182;44.516;2023-08-06T00:02:25;26.60;58.50
34989;DHT22;21192;40.182;44.516;2023-08-06T00:04:51;26.60;58.40
34989;DHT22;21192;40.182;44.516;2023-08-06T00:07:18;26.50;58.40
34989;DHT22;21192;40.182;44.516;2023-08-06T00:09:44;26.50;58.50
34989;DHT22;21192;40.182;44.516;2023-08-06T00:12:09;26.50;58.70
34989;DHT22;21192;40.182;44.516;2023-08-06T00:14:35;26.40;58.80
34989;DHT22;21192;40.182;44.516;2023-08-06T00:17:01;26.30;59.00
34989;DHT22;21192;40.182;44.516;2023-08-06T00:19:27;26.30;59.10
34989;DHT22;21192;40.182;44.516;2023-08-06T00:21:53;26.30;59.10
34989;DHT22;21192;40.182;44.516;2023-08-06T00:24:19;26.30;59.00
34989;DHT22;21192;40.182;44.516;2023-08-06T00:26:44;26.30;58.90
34989;DHT22;21192;40.182;44.516;2023-08-06T00:29:10;26.30;58.90
34989;DHT22;21192;40.182;44.516;2023-08-06T00:31:36;26.30;58.80
34989;DHT22;21192;40.182;44.516;2023-08-06T00:34:02;26.30;58.80
34989;DHT22;21192;40.182;44.516;2023-08-06T00:36:27;26.40;58.80
34989;DHT22;21192;40.182;44.516;2023-08-06T00:38:53;26.40;58.70
34989;DHT22;21192;40.182;44.516;2023-08-06T00:41:21;26.40;58.60
34989;DHT22;21192;40.182;44.516;2023-08-06T00:43:47;26.40;58.50
34989;DHT22;21192;40.182;44.516;2023-08-06T00:46:13;26.50;58.50
34989;DHT22;21192;40.182;44.516;2023-08-06T00:48:40;26.50;58.50
34989;DHT22;21192;40.182;44.516;2023-08-06T00:51:09;26.40;58.40
34989;DHT22;21192;40.182;44.516;2023-08-06T00:53:35;26.50;58.50
34989;DHT22;21192;40.182;44.516;2023-08-06T00:56:02;26.50;58.40
34989;DHT22;21192;40.182;44.516;2023-08-06T00:58:28;26.50;58.30
34989;DHT22;21192;40.182;44.516;2023-08-06T01:00:54;26.60;58.20
34989;DHT22;21192;40.182;44.516;2023-08-06T01:03:20;26.60;58.20
34989;DHT22;21192;40.182;44.516;2023-08-06T01:05:46;26.60;58.10
34989;DHT22;21192;40.182;44.516;2023-08-06T01:16:17;26.40;59.00
34989;DHT22;21192;40.182;44.516;2023-08-06T01:18:43;26.30;58.90
34989;DHT22;21192;40.182;44.516;2023-08-06T01:21:17;26.30;58.90
34989;DHT22;21192;40.182;44.516;2023-08-06T01:23:43;26.30;58.90
34989;DHT22;21192;40.182;44.516;2023-08-06T01:29:35;26.30;59.00
34989;DHT22;21192;40.182;44.516;2023-08-06T01:32:04;26.30;58.80
34989;DHT22;21192;40.182;44.516;2023-08-06T01:34:32;26.30;58.70
34989;DHT22;21192;40.182;44.516;2023-08-06T01:37:00;26.40;58.70
34989;DHT22;21192;40.182;44.516;2023-08-06T01:39:26;26.40;58.70
34989;DHT22;21192;40.182;44.516;2023-08-06T01:41:52;26.40;58.60
34989;DHT22;21192;40.182;44.516;2023-08-06T01:44:18;26.40;58.60
34989;DHT22;21192;40.182;44.516;2023-08-06T01:46:44;26.30;58.70
34989;DHT22;21192;40.182;44.516;2023-08-06T01:49:10;26.30;58.80
34989;DHT22;21192;40.182;44.516;2023-08-06T01:51:36;26.30;58.90
34989;DHT22;21192;40.182;44.516;2023-08-06T01:54:01;26.30;58.90
34989;DHT22;21192;40.182;44.516;2023-08-06T01:56:27;26.30;59.00
34989;DHT22;21192;40.182;44.516;2023-08-06T01:58:53;26.30;58.90
34989;DHT22;21192;40.182;44.516;2023-08-06T02:01:19;26.30;58.90
34989;DHT22;21192;40.182;44.516;2023-08-06T02:03:45;26.30;58.90
34989;DHT22;21192;40.182;44.516;2023-08-06T02:06:11;26.30;58.80
34989;DHT22;21192;40.182;44.516;2023-08-06T02:08:36;26.30;58.70
34989;DHT22;21192;40.182;44.516;2023-08-06T02:11:02;26.40;58.70
34989;DHT22;21192;40.182;44.516;2023-08-06T02:13:28;26.30;58.70
34989;DHT22;21192;40.182;44.516;2023-08-06T02:15:54;26.30;58.90
34989;DHT22;21192;40.182;44.516;2023-08-06T02:18:20;26.30;58.90
34989;DHT22;21192;40.182;44.516;2023-08-06T02:20:58;26.30;58.80
34989;DHT22;21192;40.182;44.516;2023-08-06T02:23:24;26.30;58.80
34989;DHT22;21192;40.182;44.516;2023-08-06T02:26:03;26.30;58.80
34989;DHT22;21192;40.182;44.516;2023-08-06T02:28:30;26.30;58.70
34989;DHT22;21192;40.182;44.516;2023-08-06T02:30:56;26.40;58.60
34989;DHT22;21192;40.182;44.516;2023-08-06T02:33:23;26.50;58.60
34989;DHT22;21192;40.182;44.516;2023-08-06T02:35:48;26.50;58.60
34989;DHT22;21192;40.182;44.516;2023-08-06T02:38:14;26.60;58.60
34989;DHT22;21192;40.182;44.516;2023-08-06T02:40:44;26.60;58.50
34989;DHT22;21192;40.182;44.516;2023-08-06T02:43:11;26.80;58.40
34989;DHT22;21192;40.182;44.516;2023-08-06T02:45:37;26.90;58.20
34989;DHT22;21192;40.182;44.516;2023-08-06T02:48:03;27.40;57.90
34989;DHT22;21192;40.182;44.516;2023-08-06T02:50:29;28.00;57.30
34989;DHT22;21192;40.182;44.516;2023-08-06T02:52:54;28.50;56.50
34989;DHT22;21192;40.182;44.516;2023-08-06T02:55:20;29.10;55.60
34989;DHT22;21192;40.182;44.516;2023-08-06T02:57:46;29.70;54.70
34989;DHT22;21192;40.182;44.516;2023-08-06T03:00:12;30.30;53.70
34989;DHT22;21192;40.182;44.516;2023-08-06T03:02:38;30.90;52.70
34989;DHT22;21192;40.182;44.516;2023-08-06T03:05:04;31.40;51.70
34989;DHT22;21192;40.182;44.516;2023-08-06T03:07:31;32.00;50.90
34989;DHT22;21192;40.182;44.516;2023-08-06T03:09:59;32.60;49.90
34989;DHT22;21192;40.182;44.516;2023-08-06T03:12:27;33.30;48.90
34989;DHT22;21192;40.182;44.516;2023-08-06T03:14:52;33.90;47.90
34989;DHT22;21192;40.182;44.516;2023-08-06T03:17:19;34.50;47.00
34989;DHT22;21192;40.182;44.516;2023-08-06T03:19:45;35.10;46.10
34989;DHT22;21192;40.182;44.516;2023-08-06T03:22:10;35.80;45.30
34989;DHT22;21192;40.182;44.516;2023-08-06T03:24:36;36.30;44.30
34989;DHT22;21192;40.182;44.516;2023-08-06T03:27:02;36.20;43.60
34989;DHT22;21192;40.182;44.516;2023-08-06T03:29:28;36.10;43.60
34989;DHT22;21192;40.182;44.516;2023-08-06T03:31:54;35.40;43.90
34989;DHT22;21192;40.182;44.516;2023-08-06T03:34:20;35.60;44.30
34989;DHT22;21192;40.182;44.516;2023-08-06T03:36:45;35.10;44.50
34989;DHT22;21192;40.182;44.516;2023-08-06T03:39:11;35.40;44.60
34989;DHT22;21192;40.182;44.516;2023-08-06T03:41:37;35.10;44.90
34989;DHT22;21192;40.182;44.516;2023-08-06T03:44:03;36.00;44.50
34989;DHT22;21192;40.182;44.516;2023-08-06T03:46:29;37.10;43.60
34989;DHT22;21192;40.182;44.516;2023-08-06T03:48:59;36.90;42.90
34989;DHT22;21192;40.182;44.516;2023-08-06T03:51:25;36.30;43.10
34989;DHT22;21192;40.182;44.516;2023-08-06T03:53:51;37.50;42.90
34989;DHT22;21192;40.182;44.516;2023-08-06T03:56:17;37.70;42.30
34989;DHT22;21192;40.182;44.516;2023-08-06T03:58:42;37.20;42.20
34989;DHT22;21192;40.182;44.516;2023-08-06T04:01:09;38.20;42.00
34989;DHT22;21192;40.182;44.516;2023-08-06T04:03:34;39.10;41.00
34989;DHT22;21192;40.182;44.516;2023-08-06T04:06:02;38.70;40.40
34989;DHT22;21192;40.182;44.516;2023-08-06T04:08:28;38.90;40.40
34989;DHT22;21192;40.182;44.516;2023-08-06T04:10:54;40.00;39.80
34989;DHT22;21192;40.182;44.516;2023-08-06T04:13:20;39.60;39.50
34989;DHT22;21192;40.182;44.516;2023-08-06T04:15:46;39.00;39.60
34989;DHT22;21192;40.182;44.516;2023-08-06T04:18:12;38.60;39.80
34989;DHT22;21192;40.182;44.516;2023-08-06T04:20:45;38.00;40.30
34989;DHT22;21192;40.182;44.516;2023-08-06T04:23:11;38.40;40.20
34989;DHT22;21192;40.182;44.516;2023-08-06T04:25:37;38.00;40.30
34989;DHT22;21192;40.182;44.516;2023-08-06T04:28:03;37.70;40.50
34989;DHT22;21192;40.182;44.516;2023-08-06T04:30:28;38.20;40.60
34989;DHT22;21192;40.182;44.516;2023-08-06T04:32:56;39.60;39.60
34989;DHT22;21192;40.182;44.516;2023-08-06T04:35:22;41.10;38.10
34989;DHT22;21192;40.182;44.516;2023-08-06T04:37:48;42.60;36.90
34989;DHT22;21192;40.182;44.516;2023-08-06T04:40:14;43.90;35.20
34989;DHT22;21192;40.182;44.516;2023-08-06T04:42:40;45.00;33.30
34989;DHT22;21192;40.182;44.516;2023-08-06T04:45:06;45.40;32.40
34989;DHT22;21192;40.182;44.516;2023-08-06T04:47:32;46.20;31.60
34989;DHT22;21192;40.182;44.516;2023-08-06T04:49:58;46.60;31.20
34989;DHT22;21192;40.182;44.516;2023-08-06T04:52:24;47.30;30.50
34989;DHT22;21192;40.182;44.516;2023-08-06T04:54:53;47.80;30.00
34989;DHT22;21192;40.182;44.516;2023-08-06T04:57:19;48.70;29.60
34989;DHT22;21192;40.182;44.516;2023-08-06T04:59:45;49.20;29.10
34989;DHT22;21192;40.182;44.516;2023-08-06T05:02:11;49.80;28.60
34989;DHT22;21192;40.182;44.516;2023-08-06T05:04:37;50.00;28.20
34989;DHT22;21192;40.182;44.516;2023-08-06T05:07:04;50.40;28.00
34989;DHT22;21192;40.182;44.516;2023-08-06T05:09:30;50.50;27.70
34989;DHT22;21192;40.182;44.516;2023-08-06T05:11:56;50.30;27.50
34989;DHT22;21192;40.182;44.516;2023-08-06T05:14:22;49.60;27.70
34989;DHT22;21192;40.182;44.516;2023-08-06T05:16:48;48.80;28.10
34989;DHT22;21192;40.182;44.516;2023-08-06T05:19:13;48.10;28.50
34989;DHT22;21192;40.182;44.516;2023-08-06T05:21:39;46.90;28.90
34989;DHT22;21192;40.182;44.516;2023-08-06T05:24:05;46.10;29.30
34989;DHT22;21192;40.182;44.516;2023-08-06T05:26:31;45.00;29.80
34989;DHT22;21192;40.182;44.516;2023-08-06T05:28:57;44.20;30.40
34989;DHT22;21192;40.182;44.516;2023-08-06T05:31:22;43.30;31.10
34989;DHT22;21192;40.182;44.516;2023-08-06T05:33:48;42.50;31.70
34989;DHT22;21192;40.182;44.516;2023-08-06T05:36:14;42.10;32.30
34989;DHT22;21192;40.182;44.516;2023-08-06T05:38:40;41.40;32.80
34989;DHT22;21192;40.182;44.516;2023-08-06T05:41:06;40.90;33.20
34989;DHT22;21192;40.182;44.516;2023-08-06T05:43:32;40.50;33.70
34989;DHT22;21192;40.182;44.516;2023-08-06T05:45:57;40.20;34.20
34989;DHT22;21192;40.182;44.516;2023-08-06T05:48:23;39.80;34.70
34989;DHT22;21192;40.182;44.516;2023-08-06T05:50:52;39.40;35.20
34989;DHT22;21192;40.182;44.516;2023-08-06T05:53:18;38.90;35.60
34989;DHT22;21192;40.182;44.516;2023-08-06T05:55:44;38.30;36.20
34989;DHT22;21192;40.182;44.516;2023-08-06T05:58:10;37.70;36.90
34989;DHT22;21192;40.182;44.516;2023-08-06T06:00:36;37.50;37.30
34989;DHT22;21192;40.182;44.516;2023-08-06T06:03:02;37.40;37.50
34989;DHT22;21192;40.182;44.516;2023-08-06T06:05:28;37.30;37.60
34989;DHT22;21192;40.182;44.516;2023-08-06T06:07:54;37.10;38.00
34989;DHT22;21192;40.182;44.516;2023-08-06T06:10:20;37.00;38.10
34989;DHT22;21192;40.182;44.516;2023-08-06T06:12:46;36.90;38.30
34989;DHT22;21192;40.182;44.516;2023-08-06T06:15:11;36.60;38.40
34989;DHT22;21192;40.182;44.516;2023-08-06T06:17:38;36.40;38.70
34989;DHT22;21192;40.182;44.516;2023-08-06T06:20:04;36.40;39.10
34989;DHT22;21192;40.182;44.516;2023-08-06T06:22:30;36.20;39.20
34989;DHT22;21192;40.182;44.516;2023-08-06T06:24:56;36.20;39.20
34989;DHT22;21192;40.182;44.516;2023-08-06T06:27:22;36.10;39.30
34989;DHT22;21192;40.182;44.516;2023-08-06T06:29:48;36.00;39.50
34989;DHT22;21192;40.182;44.516;2023-08-06T06:32:13;36.00;39.80
34989;DHT22;21192;40.182;44.516;2023-08-06T06:34:39;36.00;39.90
34989;DHT22;21192;40.182;44.516;2023-08-06T06:37:05;36.00;40.20
34989;DHT22;21192;40.182;44.516;2023-08-06T06:39:31;36.00;40.10
34989;DHT22;21192;40.182;44.516;2023-08-06T06:41:57;36.00;39.80
34989;DHT22;21192;40.182;44.516;2023-08-06T06:44:22;36.00;39.90
34989;DHT22;21192;40.182;44.516;2023-08-06T06:46:48;35.70;40.10
34989;DHT22;21192;40.182;44.516;2023-08-06T06:49:14;35.50;40.40
34989;DHT22;21192;40.182;44.516;2023-08-06T06:51:40;35.50;40.50
34989;DHT22;21192;40.182;44.516;2023-08-06T06:54:06;35.40;40.50
34989;DHT22;21192;40.182;44.516;2023-08-06T06:56:32;35.40;40.60
34989;DHT22;21192;40.182;44.516;2023-08-06T06:58:57;35.20;40.90
34989;DHT22;21192;40.182;44.516;2023-08-06T07:01:23;35.10;41.10
34989;DHT22;21192;40.182;44.516;2023-08-06T07:03:49;35.00;41.10
34989;DHT22;21192;40.182;44.516;2023-08-06T07:06:15;34.70;41.20
34989;DHT22;21192;40.182;44.516;2023-08-06T07:08:41;34.50;41.40
34989;DHT22;21192;40.182;44.516;2023-08-06T07:11:07;34.50;41.40
34989;DHT22;21192;40.182;44.516;2023-08-06T07:13:34;34.60;41.40
34989;DHT22;21192;40.182;44.516;2023-08-06T07:16:00;34.60;41.30
34989;DHT22;21192;40.182;44.516;2023-08-06T07:18:26;34.60;41.30
34989;DHT22;21192;40.182;44.516;2023-08-06T07:20:53;34.60;41.20
34989;DHT22;21192;40.182;44.516;2023-08-06T07:23:23;34.60;41.10
34989;DHT22;21192;40.182;44.516;2023-08-06T07:25:50;34.70;41.20
34989;DHT22;21192;40.182;44.516;2023-08-06T07:28:16;34.70;41.20
34989;DHT22;21192;40.182;44.516;2023-08-06T07:30:43;34.60;41.10
34989;DHT22;21192;40.182;44.516;2023-08-06T07:33:09;34.70;41.20
34989;DHT22;21192;40.182;44.516;2023-08-06T07:35:36;34.50;41.60
34989;DHT22;21192;40.182;44.516;2023-08-06T07:38:02;34.40;41.80
34989;DHT22;21192;40.182;44.516;2023-08-06T07:40:28;34.30;42.10
34989;DHT22;21192;40.182;44.516;2023-08-06T07:42:57;34.20;42.00
34989;DHT22;21192;40.182;44.516;2023-08-06T07:45:24;34.30;42.10
34989;DHT22;21192;40.182;44.516;2023-08-06T07:47:50;34.30;42.10
34989;DHT22;21192;40.182;44.516;2023-08-06T07:50:16;34.30;42.40
34989;DHT22;21192;40.182;44.516;2023-08-06T07:52:42;34.20;42.70
34989;DHT22;21192;40.182;44.516;2023-08-06T07:55:08;34.20;42.50
34989;DHT22;21192;40.182;44.516;2023-08-06T07:57:34;34.10;42.60
34989;DHT22;21192;40.182;44.516;2023-08-06T08:00:01;34.10;42.50
34989;DHT22;21192;40.182;44.516;2023-08-06T08:02:27;34.10;42.40
34989;DHT22;21192;40.182;44.516;2023-08-06T08:04:53;34.10;42.50
34989;DHT22;21192;40.182;44.516;2023-08-06T08:07:19;34.10;42.50
34989;DHT22;21192;40.182;44.516;2023-08-06T08:09:45;34.10;42.50
34989;DHT22;21192;40.182;44.516;2023-08-06T08:12:11;34.10;42.70
34989;DHT22;21192;40.182;44.516;2023-08-06T08:14:38;34.00;42.70
34989;DHT22;21192;40.182;44.516;2023-08-06T08:17:04;34.10;42.80
34989;DHT22;21192;40.182;44.516;2023-08-06T08:19:32;34.10;42.80
34989;DHT22;21192;40.182;44.516;2023-08-06T08:21:58;34.00;42.70
34989;DHT22;21192;40.182;44.516;2023-08-06T08:24:26;33.90;42.70
34989;DHT22;21192;40.182;44.516;2023-08-06T08:26:52;33.90;42.70
34989;DHT22;21192;40.182;44.516;2023-08-06T08:29:22;33.90;42.80
34989;DHT22;21192;40.182;44.516;2023-08-06T08:31:48;33.80;42.80
34989;DHT22;21192;40.182;44.516;2023-08-06T08:34:17;33.70;42.90
34989;DHT22;21192;40.182;44.516;2023-08-06T08:36:43;33.80;43.10
34989;DHT22;21192;40.182;44.516;2023-08-06T08:39:12;33.80;43.10
34989;DHT22;21192;40.182;44.516;2023-08-06T08:41:39;33.90;42.90
34989;DHT22;21192;40.182;44.516;2023-08-06T08:44:11;33.90;42.80
34989;DHT22;21192;40.182;44.516;2023-08-06T08:46:40;33.80;42.80
34989;DHT22;21192;40.182;44.516;2023-08-06T08:49:06;33.80;42.70
34989;DHT22;21192;40.182;44.516;2023-08-06T08:51:33;33.80;43.00
34989;DHT22;21192;40.182;44.516;2023-08-06T08:54:07;33.70;43.10
34989;DHT22;21192;40.182;44.516;2023-08-06T08:56:34;33.70;43.10
34989;DHT22;21192;40.182;44.516;2023-08-06T08:59:00;33.60;42.90
34989;DHT22;21192;40.182;44.516;2023-08-06T09:01:27;33.70;42.90
34989;DHT22;21192;40.182;44.516;2023-08-06T09:03:55;33.60;43.50
34989;DHT22;21192;40.182;44.516;2023-08-06T09:06:21;33.60;43.20
34989;DHT22;21192;40.182;44.516;2023-08-06T09:09:00;33.60;43.30
34989;DHT22;21192;40.182;44.516;2023-08-06T09:11:27;33.60;43.30
34989;DHT22;21192;40.182;44.516;2023-08-06T09:13:57;33.50;43.50
34989;DHT22;21192;40.182;44.516;2023-08-06T09:16:23;33.50;44.00
34989;DHT22;21192;40.182;44.516;2023-08-06T09:18:50;33.50;43.80
34989;DHT22;21192;40.182;44.516;2023-08-06T09:21:15;33.40;43.90
34989;DHT22;21192;40.182;44.516;2023-08-06T09:23:41;33.50;44.00
34989;DHT22;21192;40.182;44.516;2023-08-06T09:26:11;33.50;43.80
34989;DHT22;21192;40.182;44.516;2023-08-06T09:28:38;33.60;43.70
34989;DHT22;21192;40.182;44.516;2023-08-06T09:31:09;33.60;43.60
34989;DHT22;21192;40.182;44.516;2023-08-06T09:33:36;33.50;43.60
34989;DHT22;21192;40.182;44.516;2023-08-06T09:36:10;33.50;43.50
34989;DHT22;21192;40.182;44.516;2023-08-06T09:38:40;33.50;43.50
34989;DHT22;21192;40.182;44.516;2023-08-06T09:41:06;33.40;43.60
34989;DHT22;21192;40.182;44.516;2023-08-06T09:43:42;33.40;43.70
34989;DHT22;21192;40.182;44.516;2023-08-06T09:46:12;33.50;43.50
34989;DHT22;21192;40.182;44.516;2023-08-06T09:48:45;33.50;43.70
34989;DHT22;21192;40.182;44.516;2023-08-06T09:51:13;33.50;43.60
34989;DHT22;21192;40.182;44.516;2023-08-06T09:53:40;33.50;44.40
34989;DHT22;21192;40.182;44.516;2023-08-06T09:56:06;33.50;43.80
34989;DHT22;21192;40.182;44.516;2023-08-06T09:58:33;33.50;43.80
34989;DHT22;21192;40.182;44.516;2023-08-06T10:01:00;33.50;43.80
34989;DHT22;21192;40.182;44.516;2023-08-06T10:03:28;33.60;43.80
34989;DHT22;21192;40.182;44.516;2023-08-06T10:05:55;33.60;43.90
34989;DHT22;21192;40.182;44.516;2023-08-06T10:08:23;33.60;43.80
34989;DHT22;21192;40.182;44.516;2023-08-06T10:10:48;33.60;43.80
34989;DHT22;21192;40.182;44.516;2023-08-06T10:13:15;33.60;43.60
34989;DHT22;21192;40.182;44.516;2023-08-06T10:15:41;33.50;43.50
34989;DHT22;21192;40.182;44.516;2023-08-06T10:18:08;33.50;43.90
34989;DHT22;21192;40.182;44.516;2023-08-06T10:20:35;33.60;43.80
34989;DHT22;21192;40.182;44.516;2023-08-06T10:23:05;33.60;43.40
34989;DHT22;21192;40.182;44.516;2023-08-06T10:25:34;33.60;43.50
34989;DHT22;21192;40.182;44.516;2023-08-06T10:28:00;33.70;43.20
34989;DHT22;21192;40.182;44.516;2023-08-06T10:30:28;33.70;43.30
34989;DHT22;21192;40.182;44.516;2023-08-06T10:33:02;33.80;43.60
34989;DHT22;21192;40.182;44.516;2023-08-06T10:35:44;33.80;43.30
34989;DHT22;21192;40.182;44.516;2023-08-06T10:38:21;33.80;43.10
34989;DHT22;21192;40.182;44.516;2023-08-06T10:43:30;33.80;43.10
34989;DHT22;21192;40.182;44.516;2023-08-06T10:45:58;33.90;43.30
34989;DHT22;21192;40.182;44.516;2023-08-06T10:48:41;33.80;43.10
34989;DHT22;21192;40.182;44.516;2023-08-06T10:51:09;33.90;43.50
34989;DHT22;21192;40.182;44.516;2023-08-06T10:53:35;33.80;43.50
34989;DHT22;21192;40.182;44.516;2023-08-06T10:56:02;33.90;43.60
34989;DHT22;21192;40.182;44.516;2023-08-06T10:58:37;33.90;43.50
34989;DHT22;21192;40.182;44.516;2023-08-06T11:01:03;33.90;43.40
34989;DHT22;21192;40.182;44.516;2023-08-06T11:03:29;33.90;43.70
34989;DHT22;21192;40.182;44.516;2023-08-06T11:05:54;34.00;43.60
34989;DHT22;21192;40.182;44.516;2023-08-06T11:08:27;34.00;43.20
34989;DHT22;21192;40.182;44.516;2023-08-06T11:10:54;34.00;43.20
34989;DHT22;21192;40.182;44.516;2023-08-06T11:13:22;34.00;43.20
34989;DHT22;21192;40.182;44.516;2023-08-06T11:15:50;34.00;43.00
34989;DHT22;21192;40.182;44.516;2023-08-06T11:18:17;34.10;42.70
34989;DHT22;21192;40.182;44.516;2023-08-06T11:20:43;34.10;42.40
34989;DHT22;21192;40.182;44.516;2023-08-06T11:23:10;34.20;42.30
34989;DHT22;21192;40.182;44.516;2023-08-06T11:25:37;34.20;42.40
34989;DHT22;21192;40.182;44.516;2023-08-06T11:28:03;34.20;42.30
34989;DHT22;21192;40.182;44.516;2023-08-06T11:30:29;34.30;42.20
34989;DHT22;21192;40.182;44.516;2023-08-06T11:32:56;34.30;41.90
34989;DHT22;21192;40.182;44.516;2023-08-06T11:35:22;34.40;41.80
34989;DHT22;21192;40.182;44.516;2023-08-06T11:37:48;34.50;41.90
34989;DHT22;21192;40.182;44.516;2023-08-06T11:40:15;34.40;41.80
34989;DHT22;21192;40.182;44.516;2023-08-06T11:42:41;34.50;41.80
34989;DHT22;21192;40.182;44.516;2023-08-06T11:45:08;34.50;41.80
34989;DHT22;21192;40.182;44.516;2023-08-06T11:47:40;34.60;41.80
34989;DHT22;21192;40.182;44.516;2023-08-06T11:50:06;34.50;41.70
34989;DHT22;21192;40.182;44.516;2023-08-06T11:52:32;34.60;41.60
34989;DHT22;21192;40.182;44.516;2023-08-06T11:55:08;34.60;41.60
34989;DHT22;21192;40.182;44.516;2023-08-06T11:57:44;34.70;41.50
34989;DHT22;21192;40.182;44.516;2023-08-06T12:00:14;34.70;41.50
34989;DHT22;21192;40.182;44.516;2023-08-06T12:02:41;34.60;41.50
34989;DHT22;21192;40.182;44.516;2023-08-06T12:05:12;34.70;41.70
34989;DHT22;21192;40.182;44.516;2023-08-06T12:07:42;34.70;41.50
34989;DHT22;21192;40.182;44.516;2023-08-06T12:10:09;34.80;41.30
34989;DHT22;21192;40.182;44.516;2023-08-06T12:12:35;34.80;41.00
34989;DHT22;21192;40.182;44.516;2023-08-06T12:15:03;34.90;40.80
34989;DHT22;21192;40.182;44.516;2023-08-06T12:17:29;35.00;40.70
34989;DHT22;21192;40.182;44.516;2023-08-06T12:19:55;34.90;40.70
34989;DHT22;21192;40.182;44.516;2023-08-06T12:22:21;34.80;41.00
34989;DHT22;21192;40.182;44.516;2023-08-06T12:24:47;34.80;41.00
34989;DHT22;21192;40.182;44.516;2023-08-06T12:27:13;34.80;41.10
34989;DHT22;21192;40.182;44.516;2023-08-06T12:29:48;34.80;41.70
34989;DHT22;21192;40.182;44.516;2023-08-06T12:32:14;34.90;40.90
34989;DHT22;21192;40.182;44.516;2023-08-06T12:34:41;35.00;40.60
34989;DHT22;21192;40.182;44.516;2023-08-06T12:37:08;35.00;40.50
34989;DHT22;21192;40.182;44.516;2023-08-06T12:39:35;35.00;40.60
34989;DHT22;21192;40.182;44.516;2023-08-06T12:42:02;34.90;40.50
34989;DHT22;21192;40.182;44.516;2023-08-06T12:44:28;34.90;40.70
34989;DHT22;21192;40.182;44.516;2023-08-06T12:46:54;34.90;41.00
34989;DHT22;21192;40.182;44.516;2023-08-06T12:49:20;34.80;41.00
34989;DHT22;21192;40.182;44.516;2023-08-06T12:51:50;34.90;41.00
34989;DHT22;21192;40.182;44.516;2023-08-06T12:54:19;34.90;40.80
34989;DHT22;21192;40.182;44.516;2023-08-06T12:56:47;35.00;40.60
34989;DHT22;21192;40.182;44.516;2023-08-06T12:59:16;35.00;40.50
34989;DHT22;21192;40.182;44.516;2023-08-06T13:01:43;35.10;40.40
34989;DHT22;21192;40.182;44.516;2023-08-06T13:04:09;35.10;40.40
34989;DHT22;21192;40.182;44.516;2023-08-06T13:06:35;35.20;40.20
34989;DHT22;21192;40.182;44.516;2023-08-06T13:09:11;35.20;40.20
34989;DHT22;21192;40.182;44.516;2023-08-06T13:11:39;35.20;40.20
34989;DHT22;21192;40.182;44.516;2023-08-06T13:14:09;35.20;40.50
34989;DHT22;21192;40.182;44.516;2023-08-06T13:16:37;35.20;40.60
34989;DHT22;21192;40.182;44.516;2023-08-06T13:19:06;35.20;40.40
34989;DHT22;21192;40.182;44.516;2023-08-06T13:24:00;35.30;40.60
34989;DHT22;21192;40.182;44.516;2023-08-06T13:26:27;35.30;40.70
34989;DHT22;21192;40.182;44.516;2023-08-06T13:28:53;35.30;40.70
34989;DHT22;21192;40.182;44.516;2023-08-06T13:31:19;35.30;40.60
34989;DHT22;21192;40.182;44.516;2023-08-06T13:33:44;35.30;40.20
34989;DHT22;21192;40.182;44.516;2023-08-06T13:36:10;35.30;40.10
34989;DHT22;21192;40.182;44.516;2023-08-06T13:38:38;35.20;40.00
34989;DHT22;21192;40.182;44.516;2023-08-06T13:41:04;35.20;39.90
34989;DHT22;21192;40.182;44.516;2023-08-06T13:43:31;35.20;39.80
34989;DHT22;21192;40.182;44.516;2023-08-06T13:45:57;35.10;40.10
34989;DHT22;21192;40.182;44.516;2023-08-06T13:48:23;34.90;40.40
34989;DHT22;21192;40.182;44.516;2023-08-06T13:50:49;34.80;40.80
34989;DHT22;21192;40.182;44.516;2023-08-06T13:53:14;34.70;41.20
34989;DHT22;21192;40.182;44.516;2023-08-06T13:55:40;34.60;41.30
34989;DHT22;21192;40.182;44.516;2023-08-06T13:58:06;34.50;41.90
34989;DHT22;21192;40.182;44.516;2023-08-06T14:00:32;34.40;41.90
34989;DHT22;21192;40.182;44.516;2023-08-06T14:02:58;34.30;42.10
34989;DHT22;21192;40.182;44.516;2023-08-06T14:05:24;34.30;42.20
34989;DHT22;21192;40.182;44.516;2023-08-06T14:07:50;34.20;42.30
34989;DHT22;21192;40.182;44.516;2023-08-06T14:10:16;34.10;42.60
34989;DHT22;21192;40.182;44.516;2023-08-06T14:12:42;34.00;42.70
34989;DHT22;21192;40.182;44.516;2023-08-06T14:15:08;34.00;42.80
34989;DHT22;21192;40.182;44.516;2023-08-06T14:17:34;33.90;43.10
34989;DHT22;21192;40.182;44.516;2023-08-06T14:20:00;33.80;44.10
34989;DHT22;21192;40.182;44.516;2023-08-06T14:22:26;33.70;46.50
34989;DHT22;21192;40.182;44.516;2023-08-06T14:24:52;33.50;48.80
34989;DHT22;21192;40.182;44.516;2023-08-06T14:27:18;33.20;50.30
34989;DHT22;21192;40.182;44.516;2023-08-06T14:29:44;33.10;51.20
34989;DHT22;21192;40.182;44.516;2023-08-06T14:32:10;33.00;51.80
34989;DHT22;21192;40.182;44.516;2023-08-06T14:34:36;32.90;52.10
34989;DHT22;21192;40.182;44.516;2023-08-06T14:37:02;32.80;51.90
34989;DHT22;21192;40.182;44.516;2023-08-06T14:39:27;32.70;51.90
34989;DHT22;21192;40.182;44.516;2023-08-06T14:41:53;32.60;51.70
34989;DHT22;21192;40.182;44.516;2023-08-06T14:44:19;32.50;51.90
34989;DHT22;21192;40.182;44.516;2023-08-06T14:46:45;32.50;52.70
34989;DHT22;21192;40.182;44.516;2023-08-06T14:49:11;32.50;53.90
34989;DHT22;21192;40.182;44.516;2023-08-06T14:51:37;32.40;54.40
34989;DHT22;21192;40.182;44.516;2023-08-06T14:54:04;32.30;54.10
34989;DHT22;21192;40.182;44.516;2023-08-06T14:56:30;32.20;54.00
34989;DHT22;21192;40.182;44.516;2023-08-06T14:58:56;32.20;53.50
34989;DHT22;21192;40.182;44.516;2023-08-06T15:01:21;32.20;53.40
34989;DHT22;21192;40.182;44.516;2023-08-06T15:03:47;32.10;51.40
34989;DHT22;21192;40.182;44.516;2023-08-06T15:06:13;32.10;50.50
34989;DHT22;21192;40.182;44.516;2023-08-06T15:08:39;32.10;49.60
34989;DHT22;21192;40.182;44.516;2023-08-06T15:11:07;32.10;48.30
34989;DHT22;21192;40.182;44.516;2023-08-06T15:13:33;32.10;47.50
34989;DHT22;21192;40.182;44.516;2023-08-06T15:15:59;32.10;46.90
34989;DHT22;21192;40.182;44.516;2023-08-06T15:18:27;32.10;45.60
34989;DHT22;21192;40.182;44.516;2023-08-06T15:20:53;32.10;44.90
34989;DHT22;21192;40.182;44.516;2023-08-06T15:23:18;32.10;44.30
34989;DHT22;21192;40.182;44.516;2023-08-06T15:25:45;32.10;43.90
34989;DHT22;21192;40.182;44.516;2023-08-06T15:28:11;32.10;43.70